Search for airport 
image banner adimage banner ad
image banner ad

SVID - Dos Mosquises

Located in Isla Dos Mosquises, Venezuela

ICAO - , IATA -

Data provided by Airmate  

General information

Coordinates: N11°47'40" W66°53'34"
Elevation is feet MSL.
 
Rated:
View ratings: [VIEW]


View others Airports in Nueva Esparta

Operational data

Open for public use
Current time UTC:
Current local time:
METAR: SVLO 070002Z AUTO 04007KT NCD 32/29 Q1013
View NOTAMs / SUP AIP / TFR affecting this airport [VIEW]
Communications frequencies: [VIEW]

Runways:

RWY identifierQFULength (ft)Width (ft)SurfaceLDA (ft)
0900
2700

Airport contact information

Address: Isla Dos Mosquises Venezuela

Satellite view of SVID